KVO weather

Morava Airport
Kraljevo, Raška, Serbia

Public forecast

Using degrees Celsius for public forecast. Weather courtesy of forecast.io.

Current aviation weather report (METAR) for Morava Airport

Retrieved 2020/07/02 18:00 UTC (3 minutes ago):

LYKV 021800Z 28005KT 9999 FEW040 27/22 Q1010 NOSIG

Aviation forecast (TAF) for Morava Airport

Retrieved 2020/07/02 18:00 UTC (3 minutes ago):

TAF LYKV 021700Z 0218/0318 VRB02KT SCT040 TX32/0314Z TN19/0303Z TEMPO 0218/0219 TS FEW030CB SCT040 TEMPO 0311/0318 VRB15KT 5000 TSRA SCT027CB SCT040